.
WxDataArchive / Data Records for 2014-07-19
2014-07-18 July 2014 2014-07-20

Data Records for Saturday, 19 July 2014

Time	Temp	Chill	HIndex	Humid	Dewpt	 Wind 	HiWind	WindDir	Rain 	Barom
-----	----	-----	------	-----	-----	------	------	-------	-----	-----
00:00	63.9	63.9	63.9	76	56.2	0	0	---	0.00	30.095 
00:05	63.5	63.5	63.5	77	56.2	0	0	---	0.00	30.095 
00:10	63.2	63.2	63.2	77	55.9	0	0	---	0.00	30.095 
00:15	63.1	63.1	63.1	78	56.1	0	0	---	0.00	30.093 
00:20	62.7	62.7	62.7	78	55.7	0	0	---	0.00	30.093 
00:25	62.6	62.6	62.6	78	55.6	0	0	---	0.00	30.093 
00:30	62.4	62.4	62.4	78	55.4	0	0	---	0.00	30.094 
00:35	62.1	62.1	62.1	78	55.2	0	0	---	0.00	30.094 
00:40	62.0	62.0	62.0	79	55.4	0	0	---	0.00	30.094 
00:45	61.8	61.8	61.8	79	55.2	0	0	---	0.00	30.091 
00:50	61.6	61.6	61.6	79	55.0	0	0	---	0.00	30.091 
00:55	61.3	61.3	61.3	80	55.1	0	0	---	0.00	30.091 
01:00	61.2	61.2	61.2	80	55.0	0	0	---	0.00	30.095 
01:05	61.0	61.0	61.0	81	55.1	0	0	---	0.00	30.095 
01:10	60.9	60.9	60.9	81	55.0	0	0	---	0.00	30.095 
01:15	60.7	60.7	60.7	81	54.8	0	0	---	0.00	30.089 
01:20	60.5	60.5	60.5	82	55.0	0	0	---	0.00	30.089 
01:25	60.4	60.4	60.4	82	54.9	0	0	---	0.00	30.089 
01:30	60.2	60.2	60.2	82	54.7	0	0	---	0.00	30.087 
01:35	60.1	60.1	60.1	83	54.9	0	0	---	0.00	30.087 
01:40	59.9	59.9	59.9	83	54.7	0	0	---	0.00	30.087 
01:45	59.8	59.8	59.8	84	55.0	0	0	---	0.00	30.087 
01:50	59.6	59.6	59.6	84	54.8	0	0	---	0.00	30.087 
01:55	59.5	59.5	59.5	85	55.0	0	0	---	0.00	30.087 
02:00	59.5	59.5	59.5	85	55.0	0	0	---	0.00	30.086 
02:05	59.5	59.5	59.5	85	55.0	0	0	---	0.00	30.086 
02:10	59.6	59.6	59.6	86	55.4	0	0	---	0.00	30.086 
02:15	59.9	59.9	59.9	87	56.0	0	0	---	0.00	30.077 
02:20	60.1	60.1	60.1	87	56.2	0	0	---	0.00	30.077 
02:25	60.2	60.2	60.2	87	56.3	0	0	---	0.00	30.077 
02:30	60.4	60.4	60.4	88	56.8	0	0	---	0.00	30.069 
02:35	60.4	60.4	60.4	88	56.8	0	0	---	0.00	30.069 
02:40	60.4	60.4	60.4	88	56.8	0	0	---	0.00	30.069 
02:45	60.4	60.4	60.4	87	56.5	0	0	---	0.00	30.068 
02:50	60.4	60.4	60.4	87	56.5	0	0	---	0.00	30.068 
02:55	60.4	60.4	60.4	87	56.5	0	0	---	0.00	30.068 
03:00	60.4	60.4	60.4	86	56.2	0	0	---	0.00	30.064 
03:05	60.2	60.2	60.2	86	56.0	0	0	---	0.00	30.064 
03:10	60.2	60.2	60.2	86	56.0	0	0	---	0.00	30.064 
03:15	60.1	60.1	60.1	86	55.9	0	0	---	0.00	30.066 
03:20	60.1	60.1	60.1	87	56.2	0	0	---	0.00	30.066 
03:25	60.1	60.1	60.1	87	56.2	0	0	---	0.00	30.066 
03:30	59.9	59.9	59.9	87	56.0	0	0	---	0.00	30.060 
03:35	59.9	59.9	59.9	87	56.0	0	0	---	0.00	30.060 
03:40	59.8	59.8	59.8	87	55.9	0	0	---	0.00	30.060 
03:45	59.6	59.6	59.6	87	55.7	0	0	---	0.00	30.060 
03:50	59.5	59.5	59.5	87	55.6	0	0	---	0.00	30.060 
03:55	59.3	59.3	59.3	87	55.4	0	0	---	0.00	30.060 
04:00	59.2	59.2	59.2	87	55.3	0	0	---	0.00	30.055 
04:05	59.0	59.0	59.0	88	55.4	0	0	---	0.00	30.055 
04:10	58.9	58.9	58.9	88	55.3	0	0	---	0.00	30.055 
04:15	58.7	58.7	58.7	88	55.2	0	0	---	0.00	30.053 
04:20	58.7	58.7	58.7	88	55.2	0	0	---	0.00	30.053 
04:25	58.6	58.6	58.6	88	55.1	0	0	---	0.00	30.053 
04:30	58.4	58.4	58.4	89	55.2	0	0	---	0.00	30.056 
04:35	58.3	58.3	58.3	89	55.1	0	0	---	0.00	30.056 
04:40	58.3	58.3	58.3	89	55.1	0	0	---	0.00	30.056 
04:45	58.1	58.1	58.1	89	54.9	0	0	---	0.00	30.058 
04:50	58.0	58.0	58.0	89	54.8	0	0	---	0.00	30.058 
04:55	57.8	57.8	57.8	89	54.6	0	0	---	0.00	30.058 
05:00	57.6	57.6	57.6	90	54.7	0	0	---	0.00	30.058 
05:05	57.5	57.5	57.5	90	54.6	0	0	---	0.00	30.058 
05:10	57.5	57.5	57.5	90	54.6	0	0	---	0.00	30.058 
05:15	57.3	57.3	57.3	91	54.7	0	0	---	0.00	30.059 
05:20	57.3	57.3	57.3	91	54.7	0	0	---	0.00	30.059 
05:25	57.3	57.3	57.3	91	54.7	0	0	---	0.00	30.059 
05:30	57.3	57.3	57.3	91	54.7	0	0	---	0.00	30.065 
05:35	57.5	57.5	57.5	91	54.9	0	0	---	0.00	30.065 
05:40	57.5	57.5	57.5	92	55.2	0	0	---	0.00	30.065 
05:45	57.6	57.6	57.6	91	55.0	0	0	---	0.00	30.068 
05:50	57.6	57.6	57.6	92	55.3	0	0	---	0.00	30.068 
05:55	57.8	57.8	57.8	92	55.5	0	0	---	0.00	30.068 
06:00	58.0	58.0	58.0	92	55.7	0	0	---	0.00	30.072 
06:05	58.1	58.1	58.1	92	55.8	0	0	---	0.00	30.072 
06:10	58.3	58.3	58.3	92	56.0	0	0	---	0.00	30.072 
06:15	58.6	58.6	58.6	92	56.3	0	0	---	0.00	30.071 
06:20	58.9	58.9	58.9	92	56.6	0	0	---	0.00	30.071 
06:25	59.0	59.0	59.0	92	56.7	0	0	---	0.00	30.071 
06:30	59.3	59.3	59.3	91	56.7	0	1	90	0.00	30.073 
06:35	59.3	59.3	59.3	90	56.4	0	1	90	0.00	30.073 
06:40	59.5	59.5	59.5	90	56.6	0	1	90	0.00	30.073 
06:45	59.6	59.6	59.6	89	56.4	0	1	90	0.00	30.075 
06:50	59.8	59.8	59.8	89	56.5	0	1	90	0.00	30.075 
06:55	59.8	59.8	59.8	89	56.5	0	0	---	0.00	30.075 
07:00	59.9	59.9	59.9	89	56.6	0	1	90	0.00	30.074 
07:05	60.1	60.1	60.1	88	56.5	0	0	---	0.00	30.074 
07:10	60.2	60.2	60.2	88	56.6	0	0	---	0.00	30.074 
07:15	60.4	60.4	60.4	88	56.8	0	0	---	0.00	30.075 
07:20	60.5	60.5	60.5	88	56.9	0	0	---	0.00	30.075 
07:25	60.7	60.7	60.7	88	57.1	0	0	---	0.00	30.075 
07:30	60.7	60.7	60.7	87	56.8	0	0	---	0.00	30.075 
07:35	60.9	60.9	60.9	87	57.0	0	1	90	0.00	30.075 
07:40	61.0	61.0	61.0	86	56.8	0	0	---	0.00	30.075 
07:45	61.2	61.2	61.2	86	57.0	0	0	---	0.00	30.073 
07:50	61.3	61.3	61.3	86	57.1	0	0	---	0.00	30.073 
07:55	61.6	61.6	61.6	85	57.0	0	4	90	0.00	30.073 
08:00	61.8	61.8	61.8	84	56.9	0	3	90	0.00	30.076 
08:05	62.0	62.0	62.0	84	57.1	0	2	90	0.00	30.076 
08:10	62.1	62.1	62.1	84	57.2	0	2	90	0.00	30.076 
08:15	62.3	62.3	62.3	84	57.4	0	1	90	0.00	30.082 
08:20	62.3	62.3	62.3	84	57.4	0	3	90	0.00	30.082 
08:25	62.3	62.3	62.3	84	57.4	1	4	90	0.00	30.082 
08:30	62.3	62.3	62.3	85	57.7	0	2	90	0.00	30.082 
08:35	62.3	62.3	62.3	85	57.7	0	1	90	0.00	30.082 
08:40	62.4	62.4	62.4	85	57.8	0	1	90	0.00	30.082 
08:45	62.6	62.6	62.6	86	58.3	0	1	90	0.00	30.078 
08:50	62.6	62.6	62.6	86	58.3	0	1	90	0.00	30.078 
08:55	62.7	62.7	62.7	86	58.4	0	0	---	0.00	30.078 
09:00	62.7	62.7	62.7	86	58.4	0	0	---	0.00	30.083 
09:05	62.9	62.9	62.9	86	58.6	0	1	90	0.00	30.083 
09:10	62.9	62.9	62.9	86	58.6	0	1	90	0.00	30.083 
09:15	63.1	63.1	63.1	86	58.8	0	1	90	0.00	30.079 
09:20	63.2	63.2	63.2	86	58.9	0	1	90	0.00	30.079 
09:25	63.5	63.5	63.5	86	59.2	0	1	90	0.00	30.079 
09:30	63.9	63.9	63.9	85	59.3	0	1	90	0.00	30.072 
09:35	64.2	64.2	64.2	84	59.3	0	3	90	0.00	30.072 
09:40	64.3	64.3	64.3	83	59.0	0	2	90	0.00	30.072 
09:45	64.7	64.7	64.7	83	59.4	0	1	90	0.00	30.070 
09:50	65.0	65.0	65.0	83	59.7	0	1	90	0.00	30.070 
09:55	65.2	65.2	65.2	82	59.6	0	1	90	0.00	30.070 
10:00	65.5	65.5	65.5	82	59.9	0	3	90	0.00	30.070 
10:05	65.6	65.6	65.6	81	59.6	0	2	90	0.00	30.070 
10:10	65.8	65.8	65.8	81	59.8	0	3	90	0.00	30.070 
10:15	66.0	66.0	66.0	81	60.0	0	1	90	0.00	30.072 
10:20	66.0	66.0	66.0	79	59.3	1	5	90	0.00	30.072 
10:25	66.0	66.0	66.0	79	59.3	1	4	90	0.00	30.072 
10:30	66.0	66.0	66.0	79	59.3	1	3	90	0.00	30.072 
10:35	66.1	66.1	66.1	79	59.4	0	2	90	0.00	30.072 
10:40	66.1	66.1	66.1	79	59.4	0	2	90	0.00	30.072 
10:45	66.1	66.1	66.1	79	59.4	1	3	90	0.00	30.069 
10:50	66.0	66.0	66.0	79	59.3	2	5	112	0.00	30.069 
10:55	66.0	66.0	66.0	80	59.6	1	5	112	0.00	30.069 
11:00	66.4	66.4	66.4	80	60.0	1	5	112	0.00	30.064 
11:05	66.8	66.8	66.8	78	59.7	1	4	90	0.00	30.064 
11:10	67.3	67.3	67.3	78	60.2	1	3	90	0.00	30.064 
11:15	67.9	67.9	67.9	77	60.4	1	4	90	0.00	30.058 
11:20	68.6	68.6	68.6	74	60.0	2	5	90	0.00	30.058 
11:25	69.3	69.3	69.3	73	60.3	1	5	90	0.00	30.058 
11:30	69.8	69.8	69.8	73	60.7	2	6	90	0.00	30.054 
11:35	70.1	70.1	70.1	73	61.0	2	5	90	0.00	30.054 
11:40	70.1	70.1	70.1	72	60.6	1	5	90	0.00	30.054 
11:45	70.3	70.3	70.3	73	61.2	1	4	90	0.00	30.054 
11:50	70.8	70.8	70.8	69	60.1	1	4	90	0.00	30.054 
11:55	71.1	71.1	71.1	70	60.8	2	5	90	0.00	30.054 
12:00	71.5	71.5	71.5	67	60.0	1	3	90	0.00	30.054 
12:05	71.8	71.8	71.8	69	61.1	1	3	90	0.00	30.054 
12:10	72.0	72.0	72.0	68	60.8	2	5	90	0.00	30.054 
12:15	72.3	72.3	72.3	67	60.7	1	5	90	0.00	30.051 
12:20	72.7	72.7	72.7	65	60.2	1	4	112	0.00	30.051 
12:25	72.7	72.7	72.7	66	60.7	1	5	112	0.00	30.051 
12:30	72.8	72.8	72.8	65	60.3	1	5	112	0.00	30.053 
12:35	72.7	72.7	72.7	66	60.7	1	4	112	0.00	30.053 
12:40	73.0	73.0	73.0	65	60.5	1	5	112	0.00	30.053 
12:45	73.2	73.2	73.2	63	59.8	2	4	112	0.00	30.053 
12:50	73.0	73.0	73.0	64	60.1	2	5	90	0.00	30.053 
12:55	72.3	72.3	72.3	65	59.9	1	6	112	0.00	30.053 
13:00	71.8	71.8	71.8	65	59.4	2	5	90	0.00	30.053 
13:05	71.8	71.8	71.8	66	59.8	1	4	90	0.00	30.053 
13:10	71.6	71.6	71.6	66	59.6	1	4	90	0.00	30.053 
13:15	71.8	71.8	71.8	67	60.2	1	5	90	0.00	30.053 
13:20	72.1	72.1	72.1	65	59.7	1	4	90	0.00	30.053 
13:25	72.1	72.1	72.1	65	59.7	1	3	90	0.00	30.053 
13:30	72.5	72.5	72.5	67	60.9	0	3	90	0.00	30.046 
13:35	72.7	72.7	72.7	65	60.2	0	3	90	0.00	30.046 
13:40	72.7	72.7	72.7	65	60.2	1	3	90	0.00	30.046 
13:45	72.3	72.3	72.3	66	60.3	1	3	90	0.00	30.040 
13:50	72.1	72.1	72.1	66	60.1	1	4	90	0.00	30.040 
13:55	72.5	72.5	72.5	68	61.3	1	5	90	0.00	30.040 
14:00	72.8	72.8	72.8	66	60.8	1	5	90	0.00	30.041 
14:05	73.2	73.2	73.2	65	60.7	0	2	90	0.00	30.041 
14:10	73.2	73.2	73.2	65	60.7	1	4	90	0.00	30.041 
14:15	73.5	73.5	73.5	65	61.0	2	6	90	0.00	30.033 
14:20	73.7	73.7	73.7	64	60.7	2	5	90	0.00	30.033 
14:25	73.5	73.5	73.5	65	61.0	1	4	90	0.00	30.033 
14:30	73.3	73.3	73.3	64	60.4	1	4	90	0.00	30.029 
14:35	73.2	73.2	73.2	64	60.3	1	4	90	0.00	30.029 
14:40	73.3	73.3	73.3	65	60.8	0	2	90	0.00	30.029 
14:45	73.5	73.5	73.5	65	61.0	1	3	90	0.00	30.027 
14:50	73.5	73.5	73.5	65	61.0	0	2	90	0.00	30.027 
14:55	73.9	73.9	73.9	63	60.5	0	2	90	0.00	30.027 
15:00	74.0	74.0	74.0	63	60.6	0	2	90	0.00	30.024 
15:05	73.9	73.9	73.9	63	60.5	1	3	90	0.00	30.024 
15:10	73.5	73.5	73.5	64	60.6	1	3	90	0.00	30.024 
15:15	73.3	73.3	73.3	65	60.8	0	2	90	0.00	30.026 
15:20	73.2	73.2	73.2	64	60.3	1	2	90	0.00	30.026 
15:25	73.0	73.0	73.0	65	60.5	1	3	90	0.00	30.026 
15:30	73.0	73.0	73.0	66	61.0	0	2	90	0.00	30.025 
15:35	72.8	72.8	72.8	67	61.2	0	2	90	0.00	30.025 
15:40	72.7	72.7	72.7	67	61.1	1	3	90	0.00	30.025 
15:45	72.5	72.5	72.5	68	61.3	1	3	90	0.00	30.024 
15:50	72.1	72.1	72.1	69	61.4	1	2	90	0.00	30.024 
15:55	72.1	72.1	72.1	69	61.4	0	1	90	0.00	30.024 
16:00	72.3	72.3	72.3	68	61.1	0	1	90	0.00	30.026 
16:05	72.7	72.7	72.7	67	61.1	0	2	90	0.00	30.026 
16:10	72.7	72.7	72.7	67	61.1	1	3	90	0.00	30.026 
16:15	72.7	72.7	72.7	66	60.7	1	2	90	0.00	30.026 
16:20	72.7	72.7	72.7	65	60.2	0	2	90	0.00	30.026 
16:25	73.2	73.2	73.2	67	61.6	0	2	90	0.00	30.026 
16:30	73.5	73.5	73.5	64	60.6	0	3	90	0.00	30.020 
16:35	73.7	73.7	73.7	65	61.2	0	1	90	0.00	30.020 
16:40	73.9	73.9	73.9	65	61.4	0	1	135	0.00	30.020 
16:45	73.9	73.9	73.9	64	60.9	0	2	135	0.00	30.013 
16:50	73.9	73.9	73.9	64	60.9	0	1	135	0.00	30.013 
16:55	73.9	73.9	73.9	65	61.4	0	0	---	0.00	30.013 
17:00	73.7	73.7	73.7	65	61.2	0	2	135	0.00	30.008 
17:05	73.5	73.5	73.5	66	61.4	0	1	135	0.00	30.008 
17:10	73.5	73.5	73.5	66	61.4	0	2	135	0.00	30.008 
17:15	73.5	73.5	73.5	66	61.4	0	2	135	0.00	30.008 
17:20	73.7	73.7	73.7	66	61.6	0	2	135	0.00	30.008 
17:25	73.7	73.7	73.7	65	61.2	0	1	135	0.00	30.008 
17:30	73.9	73.9	73.9	64	60.9	1	3	135	0.00	30.006 
17:35	74.6	74.6	74.6	65	62.0	0	2	135	0.00	30.006 
17:40	75.1	75.1	77.3	62	61.2	1	2	135	0.00	30.006 
17:45	75.3	75.3	77.4	63	61.8	0	2	135	0.00	30.003 
17:50	75.4	75.4	77.5	62	61.5	0	2	135	0.00	30.003 
17:55	75.4	75.4	77.5	62	61.5	1	3	135	0.00	30.003 
18:00	75.4	75.4	77.5	63	61.9	0	3	135	0.00	29.999 
18:05	75.6	75.6	77.7	62	61.6	1	4	135	0.00	29.999 
18:10	75.6	75.6	77.7	62	61.6	1	4	135	0.00	29.999 
18:15	75.8	75.8	77.8	61	61.4	0	2	135	0.00	29.996 
18:20	75.6	75.6	77.8	59	60.2	1	2	135	0.00	29.996 
18:25	75.4	75.4	77.6	60	60.5	0	1	135	0.00	29.996 
18:30	75.4	75.4	77.6	61	61.0	0	1	135	0.00	30.000 
18:35	75.1	75.1	77.4	61	60.7	1	4	90	0.00	30.000 
18:40	74.7	74.7	74.7	60	59.9	0	2	90	0.00	30.000 
18:45	74.6	74.6	74.6	61	60.2	0	2	90	0.00	30.003 
18:50	74.4	74.4	74.4	61	60.1	1	3	90	0.00	30.003 
18:55	74.2	74.2	74.2	61	59.9	1	3	90	0.00	30.003 
19:00	74.0	74.0	74.0	61	59.7	1	5	68	0.00	29.996 
19:05	74.0	74.0	74.0	62	60.1	0	2	68	0.00	29.996 
19:10	74.0	74.0	74.0	62	60.1	0	2	68	0.00	29.996 
19:15	73.9	73.9	73.9	63	60.5	0	4	68	0.00	29.996 
19:20	73.9	73.9	73.9	63	60.5	1	2	68	0.00	29.996 
19:25	73.7	73.7	73.7	64	60.7	0	1	68	0.00	29.996 
19:30	73.7	73.7	73.7	64	60.7	0	2	68	0.00	29.993 
19:35	73.7	73.7	73.7	65	61.2	0	1	68	0.00	29.993 
19:40	73.7	73.7	73.7	64	60.7	0	1	68	0.00	29.993 
19:45	73.5	73.5	73.5	65	61.0	0	1	68	0.00	29.993 
19:50	73.5	73.5	73.5	65	61.0	0	1	68	0.00	29.993 
19:55	73.5	73.5	73.5	65	61.0	0	0	---	0.00	29.993 
20:00	73.3	73.3	73.3	66	61.2	0	1	68	0.00	29.998 
20:05	73.2	73.2	73.2	67	61.6	0	0	---	0.00	29.998 
20:10	73.0	73.0	73.0	67	61.4	0	1	68	0.00	29.998 
20:15	72.8	72.8	72.8	67	61.2	0	2	68	0.00	30.001 
20:20	72.7	72.7	72.7	68	61.5	0	0	---	0.00	30.001 
20:25	72.3	72.3	72.3	68	61.1	0	0	---	0.00	30.001 
20:30	72.1	72.1	72.1	68	60.9	0	0	---	0.00	30.006 
20:35	72.0	72.0	72.0	69	61.3	0	0	---	0.00	30.006 
20:40	71.8	71.8	71.8	69	61.1	0	0	---	0.00	30.006 
20:45	71.6	71.6	71.6	69	60.9	0	0	---	0.00	30.009 
20:50	71.5	71.5	71.5	70	61.2	0	0	---	0.00	30.009 
20:55	71.1	71.1	71.1	71	61.2	0	0	---	0.00	30.009 
21:00	70.9	70.9	70.9	71	61.0	0	0	---	0.00	30.010 
21:05	70.6	70.6	70.6	73	61.5	0	0	---	0.00	30.010 
21:10	70.1	70.1	70.1	73	61.0	0	0	---	0.00	30.010 
21:15	69.9	69.9	69.9	74	61.2	0	0	---	0.00	30.009 
21:20	69.6	69.6	69.6	74	60.9	0	0	---	0.00	30.009 
21:25	69.3	69.3	69.3	75	61.0	0	0	---	0.00	30.009 
21:30	68.9	68.9	68.9	76	61.0	0	0	---	0.00	30.013 
21:35	68.6	68.6	68.6	77	61.1	0	0	---	0.00	30.013 
21:40	68.4	68.4	68.4	77	60.9	0	0	---	0.00	30.013 
21:45	68.1	68.1	68.1	78	61.0	0	0	---	0.00	30.018 
21:50	67.8	67.8	67.8	79	61.0	0	0	---	0.00	30.018 
21:55	67.6	67.6	67.6	80	61.2	0	0	---	0.00	30.018 
22:00	67.3	67.3	67.3	81	61.3	0	0	---	0.00	30.023 
22:05	66.9	66.9	66.9	82	61.2	0	0	---	0.00	30.023 
22:10	66.6	66.6	66.6	82	60.9	0	0	---	0.00	30.023 
22:15	66.4	66.4	66.4	83	61.1	0	0	---	0.00	30.025 
22:20	66.1	66.1	66.1	84	61.1	0	0	---	0.00	30.025 
22:25	66.0	66.0	66.0	84	61.0	0	0	---	0.00	30.025 
22:30	65.8	65.8	65.8	84	60.8	0	0	---	0.00	30.024 
22:35	65.6	65.6	65.6	84	60.6	0	0	---	0.00	30.024 
22:40	65.5	65.5	65.5	85	60.9	0	0	---	0.00	30.024 
22:45	65.3	65.3	65.3	85	60.7	0	0	---	0.00	30.026 
22:50	65.2	65.2	65.2	86	60.9	0	0	---	0.00	30.026 
22:55	65.2	65.2	65.2	86	60.9	0	0	---	0.00	30.026 
23:00	65.0	65.0	65.0	86	60.7	0	0	---	0.00	30.026 
23:05	65.0	65.0	65.0	87	61.0	0	0	---	0.00	30.026 
23:10	65.0	65.0	65.0	87	61.0	0	0	---	0.00	30.026 
23:15	65.0	65.0	65.0	87	61.0	0	0	---	0.00	30.021 
23:20	65.0	65.0	65.0	87	61.0	0	0	---	0.00	30.021 
23:25	65.2	65.2	65.2	87	61.2	0	0	---	0.00	30.021 
23:30	65.2	65.2	65.2	87	61.2	0	0	---	0.00	30.019 
23:35	65.2	65.2	65.2	87	61.2	0	0	---	0.00	30.019 
23:40	65.2	65.2	65.2	87	61.2	0	0	---	0.00	30.019 
23:45	65.2	65.2	65.2	87	61.2	0	0	---	0.00	30.020 
23:50	65.2	65.2	65.2	87	61.2	0	0	---	0.00	30.020 
23:55	65.0	65.0	65.0	87	61.0	0	0	---	0.00	30.020 

CoCoRaHS
IN-AL-39
A2 Web Hosting
Creative Commons License
GoDaddy
search engine by freefind advanced

loaded 2018-11-17 18:52:19 • last modified 2010-11-18 10:43:29
Privacy PolicyDisclaimer
• wx.awcolley.com is powered by PmWiki v.2002016 •
• all content (unless otherwise noted) © 2018 A W Colley